createdAt,value
2018-03-27T00:00:07.587Z,21.97
2018-03-27T00:02:35.888Z,21.03
2018-03-27T00:05:04.200Z,22.30
2018-03-27T00:07:32.470Z,20.55
2018-03-27T00:10:00.824Z,24.17
2018-03-27T00:12:29.116Z,21.58
2018-03-27T00:14:57.405Z,22.50
2018-03-27T00:17:25.680Z,20.55
2018-03-27T00:19:54.022Z,23.60
2018-03-27T00:22:22.312Z,21.70
2018-03-27T00:24:50.623Z,23.98
2018-03-27T00:27:18.362Z,22.20
2018-03-27T00:29:58.495Z,29.43
2018-03-27T00:32:38.484Z,23.93
2018-03-27T00:35:18.521Z,21.23
2018-03-27T00:37:58.518Z,22.20
2018-03-27T00:40:38.600Z,20.70
2018-03-27T00:43:07.621Z,21.00
2018-03-27T00:45:35.916Z,19.60
2018-03-27T00:48:05.054Z,21.12
2018-03-27T00:50:33.387Z,24.40
2018-03-27T00:53:01.717Z,21.90
2018-03-27T00:55:30.018Z,25.50
2018-03-27T00:57:58.387Z,24.52
2018-03-27T01:00:25.978Z,22.77
2018-03-27T01:02:54.107Z,19.03
2018-03-27T01:05:22.392Z,21.92
2018-03-27T01:07:50.757Z,20.87
2018-03-27T01:10:19.095Z,20.95
2018-03-27T01:12:47.444Z,22.60
2018-03-27T01:15:15.699Z,19.52
2018-03-27T01:17:44.023Z,20.57
2018-03-27T01:20:12.302Z,21.50
2018-03-27T01:22:40.615Z,22.57
2018-03-27T01:25:08.892Z,20.53
2018-03-27T01:27:37.187Z,20.63
2018-03-27T01:30:05.467Z,20.97
2018-03-27T01:32:33.827Z,20.77
2018-03-27T01:35:02.211Z,23.10
2018-03-27T01:37:30.461Z,19.67
2018-03-27T01:39:58.744Z,22.03
2018-03-27T01:42:27.059Z,20.80
2018-03-27T01:44:55.367Z,20.60
2018-03-27T01:47:23.656Z,19.53
2018-03-27T01:49:51.952Z,20.05
2018-03-27T01:52:20.251Z,21.87
2018-03-27T01:54:48.551Z,18.83
2018-03-27T01:57:16.855Z,20.97
2018-03-27T01:59:45.164Z,20.27
2018-03-27T02:02:13.442Z,22.07
2018-03-27T02:04:41.756Z,20.50
2018-03-27T02:07:10.100Z,20.70
2018-03-27T02:09:38.471Z,22.23
2018-03-27T02:12:12.399Z,19.03
2018-03-27T02:14:46.179Z,19.40
2018-03-27T02:17:20.027Z,18.40
2018-03-27T02:19:53.998Z,22.43
2018-03-27T02:22:22.279Z,21.50
2018-03-27T02:24:50.628Z,19.35
2018-03-27T02:27:18.948Z,21.37
2018-03-27T02:29:47.290Z,21.87
2018-03-27T02:32:15.568Z,19.58
2018-03-27T02:34:43.859Z,18.93
2018-03-27T02:37:12.144Z,23.20
2018-03-27T02:39:40.495Z,20.67
2018-03-27T02:42:08.776Z,23.77
2018-03-27T02:44:37.086Z,19.03
2018-03-27T02:47:05.470Z,17.53
2018-03-27T02:49:33.733Z,16.83
2018-03-27T02:52:02.021Z,21.10
2018-03-27T02:54:30.292Z,18.37
2018-03-27T02:56:58.649Z,19.70
2018-03-27T02:59:26.998Z,18.43
2018-03-27T03:01:55.304Z,20.30
2018-03-27T03:04:26.954Z,20.27
2018-03-27T03:06:55.252Z,17.10
2018-03-27T03:09:23.556Z,19.40
2018-03-27T03:11:51.899Z,17.23
2018-03-27T03:14:20.247Z,15.85
2018-03-27T03:16:48.548Z,18.67
2018-03-27T03:19:16.836Z,17.77
2018-03-27T03:21:45.144Z,16.97
2018-03-27T03:24:13.451Z,15.60
2018-03-27T03:26:41.752Z,17.53
2018-03-27T03:29:10.039Z,17.95
2018-03-27T03:31:38.357Z,18.13
2018-03-27T03:34:06.644Z,15.70
2018-03-27T03:36:34.975Z,17.47
2018-03-27T03:39:03.324Z,17.13
2018-03-27T03:41:31.733Z,19.40
2018-03-27T03:44:00.024Z,17.33
2018-03-27T03:46:28.303Z,15.60
2018-03-27T03:48:56.644Z,18.37
2018-03-27T03:51:24.917Z,14.90
2018-03-27T03:53:53.224Z,13.88
2018-03-27T03:56:21.533Z,16.40
2018-03-27T03:58:49.839Z,16.23
2018-03-27T04:01:18.128Z,15.70
2018-03-27T04:03:46.434Z,15.13
2018-03-27T04:06:15.648Z,14.70
2018-03-27T04:08:43.992Z,17.60
2018-03-27T04:11:12.263Z,15.90
2018-03-27T04:13:40.646Z,18.27
2018-03-27T04:16:08.985Z,17.70
2018-03-27T04:18:37.282Z,19.27
2018-03-27T04:21:05.579Z,15.05
2018-03-27T04:23:33.884Z,15.20
2018-03-27T04:26:02.199Z,17.80
2018-03-27T04:28:30.503Z,15.20
2018-03-27T04:30:58.809Z,15.70
2018-03-27T04:33:27.125Z,16.90
2018-03-27T04:35:55.395Z,15.87
2018-03-27T04:38:24.046Z,22.23
2018-03-27T04:40:52.308Z,23.97
2018-03-27T04:43:20.634Z,13.93
2018-03-27T04:45:49.499Z,14.93
2018-03-27T04:48:18.229Z,18.30
2018-03-27T04:50:46.549Z,19.40
2018-03-27T04:53:14.844Z,22.45
2018-03-27T04:55:43.227Z,17.47
2018-03-27T04:58:11.514Z,20.40
2018-03-27T05:00:39.868Z,26.50
2018-03-27T05:03:08.182Z,20.00
2018-03-27T05:05:36.484Z,15.53
2018-03-27T05:08:07.164Z,16.48
2018-03-27T05:10:35.456Z,17.40
2018-03-27T05:13:04.777Z,17.18
2018-03-27T05:15:33.058Z,15.53
2018-03-27T05:18:01.353Z,15.40
2018-03-27T05:20:29.692Z,15.90
2018-03-27T05:22:58.016Z,16.90
2018-03-27T05:25:26.343Z,21.87
2018-03-27T05:27:54.800Z,16.27
2018-03-27T05:30:23.132Z,21.27
2018-03-27T05:32:52.667Z,14.45
2018-03-27T05:35:21.028Z,12.80
2018-03-27T05:37:49.285Z,15.17
2018-03-27T05:40:17.647Z,16.40
2018-03-27T05:42:46.847Z,14.07
2018-03-27T05:45:16.339Z,19.10
2018-03-27T05:47:44.632Z,19.20
2018-03-27T05:50:12.937Z,13.07
2018-03-27T05:52:41.311Z,16.13
2018-03-27T05:55:09.649Z,19.08
2018-03-27T05:57:37.940Z,16.17
2018-03-27T06:00:06.212Z,15.87
2018-03-27T06:02:34.601Z,17.90
2018-03-27T06:05:02.931Z,22.30
2018-03-27T06:07:31.244Z,17.20
2018-03-27T06:10:00.333Z,19.37
2018-03-27T06:12:28.621Z,16.03
2018-03-27T06:14:56.908Z,18.63
2018-03-27T06:17:25.217Z,29.27
2018-03-27T06:19:53.554Z,16.63
2018-03-27T06:22:21.823Z,15.10
2018-03-27T06:24:50.102Z,25.83
2018-03-27T06:27:18.671Z,19.10
2018-03-27T06:29:47.005Z,17.40
2018-03-27T06:32:15.492Z,20.90
2018-03-27T06:34:44.415Z,20.80
2018-03-27T06:37:12.735Z,20.17
2018-03-27T06:39:41.065Z,22.30
2018-03-27T06:42:09.450Z,20.10
2018-03-27T06:44:43.552Z,17.50
2018-03-27T06:47:13.605Z,22.10
2018-03-27T06:49:41.861Z,19.97
2018-03-27T06:52:10.135Z,21.58
2018-03-27T06:54:38.470Z,26.63
2018-03-27T06:57:06.780Z,22.23
2018-03-27T06:59:35.712Z,27.67
2018-03-27T07:02:04.528Z,34.13
2018-03-27T07:04:33.089Z,30.10
2018-03-27T07:07:01.706Z,34.70
2018-03-27T07:09:30.021Z,28.53
2018-03-27T07:12:03.589Z,26.43
2018-03-27T07:14:31.963Z,27.33
2018-03-27T07:17:00.250Z,35.13
2018-03-27T07:19:28.574Z,34.15
2018-03-27T07:21:56.881Z,24.67
2018-03-27T07:24:25.216Z,30.33
2018-03-27T07:26:53.528Z,33.53
2018-03-27T07:29:22.152Z,29.27
2018-03-27T07:31:50.464Z,31.17
2018-03-27T07:34:18.859Z,33.42
2018-03-27T07:36:47.244Z,41.87
2018-03-27T07:39:16.063Z,36.13
2018-03-27T07:41:44.798Z,37.65
2018-03-27T07:44:13.296Z,41.97
2018-03-27T07:46:41.603Z,47.40
2018-03-27T07:49:09.910Z,36.10
2018-03-27T07:51:38.192Z,40.65
2018-03-27T07:54:06.553Z,38.47
2018-03-27T07:56:34.843Z,39.37
2018-03-27T07:59:03.210Z,43.97
2018-03-27T08:01:31.831Z,41.27
2018-03-27T08:04:00.156Z,38.30
2018-03-27T08:06:28.511Z,36.70
2018-03-27T08:08:56.831Z,45.60
2018-03-27T08:11:25.154Z,40.00
2018-03-27T08:13:54.309Z,38.80
2018-03-27T08:16:23.940Z,39.33
2018-03-27T08:18:52.306Z,36.53
2018-03-27T08:21:21.468Z,39.40
2018-03-27T08:23:49.783Z,43.47
2018-03-27T08:26:19.174Z,38.28
2018-03-27T08:28:48.593Z,42.13
2018-03-27T08:31:16.931Z,42.50
2018-03-27T08:33:45.220Z,37.23
2018-03-27T08:36:13.657Z,40.95
2018-03-27T08:38:41.932Z,37.83
2018-03-27T08:41:10.991Z,37.03
2018-03-27T08:43:39.267Z,38.47
2018-03-27T08:46:08.218Z,35.10
2018-03-27T08:48:36.650Z,36.30
2018-03-27T08:51:05.207Z,37.22
2018-03-27T08:53:33.584Z,33.83
2018-03-27T08:56:02.572Z,35.87
2018-03-27T08:58:30.854Z,37.90
2018-03-27T09:00:59.683Z,35.23
2018-03-27T09:03:28.169Z,36.55
2018-03-27T09:05:56.558Z,35.57
2018-03-27T09:08:24.900Z,33.70
2018-03-27T09:10:53.184Z,33.92
2018-03-27T09:13:21.529Z,33.67
2018-03-27T09:15:53.299Z,39.50
2018-03-27T09:18:21.660Z,37.50
2018-03-27T09:20:49.942Z,37.80
2018-03-27T09:23:18.323Z,32.72
2018-03-27T09:25:47.891Z,37.23
2018-03-27T09:28:16.517Z,35.00
2018-03-27T09:30:45.751Z,33.67
2018-03-27T09:33:14.164Z,32.85
2018-03-27T09:35:42.599Z,32.53
2018-03-27T09:38:10.958Z,32.20
2018-03-27T09:40:39.282Z,30.23
2018-03-27T09:43:08.251Z,31.50
2018-03-27T09:45:36.557Z,34.20
2018-03-27T09:48:05.620Z,27.48
2018-03-27T09:50:33.926Z,26.83
2018-03-27T09:53:02.879Z,27.95
2018-03-27T09:55:31.220Z,26.23
2018-03-27T09:57:59.877Z,30.27
2018-03-27T10:00:34.783Z,27.43
2018-03-27T10:03:03.068Z,25.73
2018-03-27T10:05:31.443Z,40.20
2018-03-27T10:08:00.319Z,26.77
2018-03-27T10:10:29.857Z,30.20
2018-03-27T10:12:58.180Z,27.07
2018-03-27T10:15:26.536Z,27.97
2018-03-27T10:17:54.961Z,26.27
2018-03-27T10:20:23.304Z,26.77
2018-03-27T10:22:52.108Z,26.00
2018-03-27T10:25:20.534Z,28.33
2018-03-27T10:27:49.444Z,27.13
2018-03-27T10:30:17.737Z,31.42
2018-03-27T10:32:46.090Z,25.10
2018-03-27T10:35:14.940Z,32.63
2018-03-27T10:37:43.247Z,22.35
2018-03-27T10:40:11.586Z,23.23
2018-03-27T10:42:39.899Z,26.13
2018-03-27T10:45:08.260Z,23.97
2018-03-27T10:47:36.556Z,23.93
2018-03-27T10:50:05.372Z,28.87
2018-03-27T10:52:33.722Z,23.45
2018-03-27T10:55:02.762Z,25.93
2018-03-27T10:57:31.136Z,25.90
2018-03-27T10:59:59.462Z,25.80
2018-03-27T11:02:27.849Z,19.60
2018-03-27T11:04:56.683Z,26.27
2018-03-27T11:07:25.685Z,23.97
2018-03-27T11:09:54.018Z,23.92
2018-03-27T11:12:22.387Z,24.47
2018-03-27T11:14:50.709Z,22.83
2018-03-27T11:17:19.765Z,22.73
2018-03-27T11:19:48.259Z,22.87
2018-03-27T11:22:16.837Z,21.73
2018-03-27T11:24:45.098Z,25.67
2018-03-27T11:27:13.471Z,24.23
2018-03-27T11:29:41.873Z,23.00
2018-03-27T11:32:10.516Z,23.85
2018-03-27T11:34:38.810Z,25.20
2018-03-27T11:37:10.576Z,20.63
2018-03-27T11:39:42.096Z,21.57
2018-03-27T11:42:11.628Z,27.10
2018-03-27T11:44:40.240Z,22.30
2018-03-27T11:47:09.670Z,24.07
2018-03-27T11:49:38.324Z,23.60
2018-03-27T11:52:09.172Z,28.43
2018-03-27T11:54:37.600Z,24.33
2018-03-27T11:57:06.552Z,23.30
2018-03-27T11:59:34.852Z,26.40
2018-03-27T12:02:03.600Z,23.83
2018-03-27T12:04:32.193Z,24.83
2018-03-27T12:07:04.396Z,21.43
2018-03-27T12:09:33.736Z,24.70
2018-03-27T12:12:02.086Z,21.53
2018-03-27T12:14:31.130Z,25.00
2018-03-27T12:16:59.494Z,25.83
2018-03-27T12:19:27.929Z,23.30
2018-03-27T12:21:58.248Z,24.37
2018-03-27T12:24:26.645Z,21.77
2018-03-27T12:26:54.971Z,28.43
2018-03-27T12:29:23.317Z,23.37
2018-03-27T12:31:51.628Z,22.93
2018-03-27T12:34:20.259Z,22.80
2018-03-27T12:36:48.639Z,26.58
2018-03-27T12:39:17.027Z,29.43
2018-03-27T12:41:45.366Z,30.03
2018-03-27T12:44:13.739Z,24.20
2018-03-27T12:46:42.363Z,25.63
2018-03-27T12:49:11.247Z,26.17
2018-03-27T12:51:39.546Z,31.77
2018-03-27T12:54:07.988Z,25.60
2018-03-27T12:56:36.343Z,24.57
2018-03-27T12:59:05.698Z,29.65
2018-03-27T13:01:33.966Z,26.93
2018-03-27T13:04:02.372Z,28.27
2018-03-27T13:06:30.940Z,27.20
2018-03-27T13:08:59.256Z,23.10
2018-03-27T13:11:27.604Z,27.13
2018-03-27T13:13:55.874Z,23.67
2018-03-27T13:16:24.267Z,31.27
2018-03-27T13:18:52.748Z,28.00
2018-03-27T13:21:23.273Z,31.33
2018-03-27T13:23:51.674Z,26.60
2018-03-27T13:26:20.252Z,23.95
2018-03-27T13:28:49.271Z,22.73
2018-03-27T13:31:17.631Z,28.70
2018-03-27T13:33:45.941Z,25.30
2018-03-27T13:36:14.286Z,24.15
2018-03-27T13:38:42.574Z,26.30
2018-03-27T13:41:10.898Z,24.87
2018-03-27T13:43:39.204Z,24.00
2018-03-27T13:46:07.565Z,22.00
2018-03-27T13:48:35.888Z,24.67
2018-03-27T13:51:04.332Z,26.37
2018-03-27T13:53:32.724Z,31.80
2018-03-27T13:56:01.097Z,25.40
2018-03-27T13:58:29.526Z,25.47
2018-03-27T14:00:57.853Z,28.00
2018-03-27T14:03:26.151Z,29.97
2018-03-27T14:05:54.671Z,23.13
2018-03-27T14:08:23.755Z,24.43
2018-03-27T14:10:53.262Z,20.83
2018-03-27T14:13:21.700Z,24.60
2018-03-27T14:15:50.748Z,27.07
2018-03-27T14:18:19.108Z,26.62
2018-03-27T14:20:47.422Z,25.53
2018-03-27T14:23:15.730Z,24.02
2018-03-27T14:25:44.027Z,23.67
2018-03-27T14:28:15.986Z,25.80
2018-03-27T14:30:44.998Z,26.30
2018-03-27T14:33:13.311Z,24.47
2018-03-27T14:35:41.633Z,24.43
2018-03-27T14:38:10.062Z,24.92
2018-03-27T14:40:39.169Z,28.00
2018-03-27T14:43:07.616Z,28.27
2018-03-27T14:45:36.234Z,26.50
2018-03-27T14:48:05.126Z,28.33
2018-03-27T14:50:33.437Z,27.50
2018-03-27T14:53:01.842Z,28.77
2018-03-27T14:55:30.108Z,28.93
2018-03-27T14:57:59.295Z,27.83
2018-03-27T15:00:27.648Z,25.47
2018-03-27T15:02:56.524Z,26.07
2018-03-27T15:05:25.367Z,28.60
2018-03-27T15:07:55.417Z,27.90
2018-03-27T15:10:23.795Z,33.88
2018-03-27T15:12:52.129Z,27.37
2018-03-27T15:15:21.020Z,29.27
2018-03-27T15:17:49.354Z,30.90
2018-03-27T15:20:17.781Z,27.80
2018-03-27T15:22:46.192Z,27.90
2018-03-27T15:25:14.744Z,25.67
2018-03-27T15:27:43.161Z,28.50
2018-03-27T15:30:11.569Z,26.37
2018-03-27T15:32:39.873Z,31.17
2018-03-27T15:35:08.200Z,31.20
2018-03-27T15:37:36.600Z,29.20
2018-03-27T15:40:05.763Z,29.40
2018-03-27T15:42:36.258Z,26.93
2018-03-27T15:45:05.662Z,28.25
2018-03-27T15:47:33.961Z,31.67
2018-03-27T15:50:02.327Z,30.73
2018-03-27T15:52:30.652Z,29.03
2018-03-27T15:54:58.983Z,30.47
2018-03-27T15:57:27.346Z,27.17
2018-03-27T15:59:55.717Z,30.00
2018-03-27T16:02:24.085Z,28.97
2018-03-27T16:04:52.547Z,28.77
2018-03-27T16:07:20.984Z,30.43
2018-03-27T16:09:49.359Z,26.80
2018-03-27T16:12:17.702Z,28.73
2018-03-27T16:14:46.775Z,26.47
2018-03-27T16:17:15.170Z,27.00
2018-03-27T16:19:43.500Z,31.67
2018-03-27T16:22:12.540Z,27.07
2018-03-27T16:24:41.002Z,25.80
2018-03-27T16:27:09.363Z,27.97
2018-03-27T16:29:38.303Z,27.40
2018-03-27T16:32:06.648Z,27.25
2018-03-27T16:34:34.930Z,26.53
2018-03-27T16:37:03.369Z,29.80
2018-03-27T16:39:31.646Z,32.03
2018-03-27T16:41:59.958Z,28.67
2018-03-27T16:44:28.260Z,29.10
2018-03-27T16:46:56.560Z,32.53
2018-03-27T16:49:24.882Z,25.93
2018-03-27T16:51:53.226Z,31.30
2018-03-27T16:54:21.546Z,27.35
2018-03-27T16:56:49.864Z,28.30
2018-03-27T16:59:18.398Z,29.63
2018-03-27T17:01:46.762Z,27.60
2018-03-27T17:04:15.082Z,27.48
2018-03-27T17:06:43.421Z,33.77
2018-03-27T17:09:13.065Z,29.85
2018-03-27T17:11:41.408Z,24.53
2018-03-27T17:14:09.723Z,26.42
2018-03-27T17:16:38.292Z,35.17
2018-03-27T17:19:06.679Z,32.00
2018-03-27T17:21:35.029Z,29.00
2018-03-27T17:24:03.388Z,27.10
2018-03-27T17:26:31.749Z,29.20
2018-03-27T17:29:00.823Z,28.17
2018-03-27T17:31:29.116Z,29.20
2018-03-27T17:33:57.437Z,29.57
2018-03-27T17:36:25.704Z,28.67
2018-03-27T17:38:54.074Z,28.93
2018-03-27T17:41:22.342Z,33.17
2018-03-27T17:43:50.686Z,27.60
2018-03-27T17:46:18.989Z,29.73
2018-03-27T17:48:47.315Z,31.57
2018-03-27T17:51:15.599Z,28.97
2018-03-27T17:53:43.902Z,27.60
2018-03-27T17:56:12.175Z,28.00
2018-03-27T17:58:40.500Z,33.53
2018-03-27T18:01:08.838Z,24.97
2018-03-27T18:03:37.157Z,24.57
2018-03-27T18:06:06.395Z,31.97
2018-03-27T18:08:34.811Z,26.87
2018-03-27T18:11:03.116Z,25.93
2018-03-27T18:13:31.456Z,28.47
2018-03-27T18:15:59.743Z,25.00
2018-03-27T18:18:28.067Z,25.60
2018-03-27T18:20:57.293Z,24.77
2018-03-27T18:23:25.665Z,24.27
2018-03-27T18:25:54.040Z,27.80
2018-03-27T18:28:22.388Z,26.13
2018-03-27T18:30:50.745Z,25.65
2018-03-27T18:33:19.048Z,28.12
2018-03-27T18:35:47.425Z,25.47
2018-03-27T18:38:15.809Z,24.70
2018-03-27T18:40:44.168Z,24.30
2018-03-27T18:43:12.531Z,28.70
2018-03-27T18:45:40.842Z,24.70
2018-03-27T18:48:09.218Z,26.20
2018-03-27T18:50:37.637Z,24.13
2018-03-27T18:53:06.484Z,21.77
2018-03-27T18:55:34.793Z,23.03
2018-03-27T18:58:03.168Z,21.50
2018-03-27T19:00:31.458Z,25.40
2018-03-27T19:02:59.793Z,21.10
2018-03-27T19:05:28.393Z,24.90
2018-03-27T19:07:56.706Z,24.53
2018-03-27T19:10:25.066Z,21.47
2018-03-27T19:12:53.332Z,22.60
2018-03-27T19:15:22.003Z,20.60
2018-03-27T19:17:50.293Z,21.53
2018-03-27T19:20:18.570Z,22.50
2018-03-27T19:22:47.237Z,22.20
2018-03-27T19:25:15.560Z,19.50
2018-03-27T19:27:43.877Z,20.73
2018-03-27T19:30:12.185Z,17.77
2018-03-27T19:32:40.497Z,17.13
2018-03-27T19:35:08.819Z,19.17
2018-03-27T19:37:37.111Z,18.53
2018-03-27T19:40:06.129Z,44.43
2018-03-27T19:42:34.424Z,20.03
2018-03-27T19:45:02.718Z,26.13
2018-03-27T19:47:31.280Z,16.65
2018-03-27T19:50:01.026Z,18.53
2018-03-27T19:52:29.652Z,14.87
2018-03-27T19:54:58.199Z,19.13
2018-03-27T19:57:27.762Z,15.50
2018-03-27T19:59:57.048Z,16.00
2018-03-27T20:02:26.490Z,17.30
2018-03-27T20:04:55.047Z,16.10
2018-03-27T20:07:23.620Z,16.43
2018-03-27T20:09:52.077Z,15.25
2018-03-27T20:12:25.339Z,14.20
2018-03-27T20:14:53.677Z,15.35
2018-03-27T20:17:23.076Z,13.40
2018-03-27T20:19:51.932Z,13.17
2018-03-27T20:22:20.316Z,18.83
2018-03-27T20:24:50.038Z,16.37
2018-03-27T20:27:22.321Z,13.93
2018-03-27T20:29:58.923Z,12.50
2018-03-27T20:32:29.436Z,13.80
2018-03-27T20:34:57.784Z,13.32
2018-03-27T20:37:26.075Z,12.23
2018-03-27T20:39:54.376Z,13.60
2018-03-27T20:42:22.653Z,11.20
2018-03-27T20:44:51.079Z,12.40
2018-03-27T20:47:19.413Z,12.67
2018-03-27T20:49:47.746Z,12.82
2018-03-27T20:52:16.035Z,12.60
2018-03-27T20:54:44.415Z,11.00
2018-03-27T20:57:12.688Z,9.98
2018-03-27T20:59:40.998Z,10.13
2018-03-27T21:02:09.275Z,13.05
2018-03-27T21:04:37.612Z,11.50
2018-03-27T21:07:05.885Z,11.68
2018-03-27T21:09:34.224Z,12.60
2018-03-27T21:12:02.525Z,13.40
2018-03-27T21:14:30.807Z,9.87
2018-03-27T21:17:00.485Z,10.97
2018-03-27T21:19:28.864Z,9.27
2018-03-27T21:21:57.133Z,11.30
2018-03-27T21:24:25.567Z,11.70
2018-03-27T21:26:53.923Z,9.60
2018-03-27T21:29:22.216Z,8.05
2018-03-27T21:31:50.492Z,8.40
2018-03-27T21:34:18.831Z,8.83
2018-03-27T21:36:47.158Z,11.47
2018-03-27T21:39:15.455Z,13.83
2018-03-27T21:41:43.814Z,11.43
2018-03-27T21:44:12.108Z,11.33
2018-03-27T21:46:40.460Z,13.70
2018-03-27T21:49:08.732Z,12.67
2018-03-27T21:51:37.045Z,11.10
2018-03-27T21:54:05.726Z,8.90
2018-03-27T21:56:34.027Z,9.60
2018-03-27T21:59:02.298Z,8.93
2018-03-27T22:01:30.585Z,9.50
2018-03-27T22:03:58.867Z,9.50
2018-03-27T22:06:27.174Z,10.00
2018-03-27T22:08:55.518Z,12.17
2018-03-27T22:11:24.028Z,11.20
2018-03-27T22:13:52.271Z,13.70
2018-03-27T22:16:20.648Z,13.67
2018-03-27T22:18:48.967Z,12.67
2018-03-27T22:21:17.302Z,10.93
2018-03-27T22:23:45.563Z,11.60
2018-03-27T22:26:13.880Z,11.80
2018-03-27T22:28:42.387Z,10.32
2018-03-27T22:31:10.665Z,12.35
2018-03-27T22:33:39.057Z,13.10
2018-03-27T22:36:07.332Z,11.98
2018-03-27T22:38:35.656Z,11.53
2018-03-27T22:41:04.827Z,11.43
2018-03-27T22:43:33.162Z,10.43
2018-03-27T22:46:01.507Z,11.63
2018-03-27T22:48:29.978Z,9.77
2018-03-27T22:50:58.267Z,12.75
2018-03-27T22:53:26.679Z,10.50
2018-03-27T22:55:54.952Z,8.67
2018-03-27T22:58:23.264Z,8.70
2018-03-27T23:00:51.536Z,8.30
2018-03-27T23:03:19.860Z,12.20
2018-03-27T23:05:48.177Z,9.17
2018-03-27T23:08:16.464Z,8.83
2018-03-27T23:10:44.764Z,9.73
2018-03-27T23:13:13.168Z,11.73
2018-03-27T23:15:41.414Z,11.30
2018-03-27T23:18:09.692Z,9.83
2018-03-27T23:20:37.986Z,7.10
2018-03-27T23:23:06.251Z,8.30
2018-03-27T23:25:34.496Z,9.63
2018-03-27T23:28:02.758Z,11.90
2018-03-27T23:30:31.072Z,12.83
2018-03-27T23:32:59.360Z,10.23
2018-03-27T23:35:27.656Z,12.63
2018-03-27T23:37:55.930Z,11.70
2018-03-27T23:40:24.248Z,12.50
2018-03-27T23:42:52.520Z,12.00
2018-03-27T23:45:20.808Z,10.23
2018-03-27T23:47:49.083Z,10.60
2018-03-27T23:50:17.408Z,11.90
2018-03-27T23:52:45.658Z,11.83
2018-03-27T23:55:13.980Z,10.50
2018-03-27T23:57:42.272Z,8.83
